sensor_id;sensor_type;location;lat;lon;timestamp;pressure;altitude;pressure_sealevel;temperature;humidity
11172;BME280;5642;50.830;12.082;2023-04-01T00:01:06;97681.19;;;13.45;49.84
11172;BME280;5642;50.830;12.082;2023-04-01T00:03:34;97690.66;;;13.47;49.68
11172;BME280;5642;50.830;12.082;2023-04-01T00:06:02;97665.09;;;13.37;49.61
11172;BME280;5642;50.830;12.082;2023-04-01T00:08:29;97684.75;;;13.44;49.69
11172;BME280;5642;50.830;12.082;2023-04-01T00:10:58;97685.28;;;13.49;49.62
11172;BME280;5642;50.830;12.082;2023-04-01T00:13:26;97687.09;;;13.48;49.67
11172;BME280;5642;50.830;12.082;2023-04-01T00:15:53;97679.72;;;13.41;49.69
11172;BME280;5642;50.830;12.082;2023-04-01T00:18:22;97669.09;;;13.29;49.53
11172;BME280;5642;50.830;12.082;2023-04-01T00:20:52;97691.09;;;13.41;49.56
11172;BME280;5642;50.830;12.082;2023-04-01T00:23:20;97683.41;;;13.38;49.73
11172;BME280;5642;50.830;12.082;2023-04-01T00:25:48;97681.09;;;13.33;49.81
11172;BME280;5642;50.830;12.082;2023-04-01T00:28:17;97655.97;;;13.17;49.99
11172;BME280;5642;50.830;12.082;2023-04-01T00:30:45;97684.47;;;13.36;49.77
11172;BME280;5642;50.830;12.082;2023-04-01T00:33:11;97649.28;;;13.13;49.82
11172;BME280;5642;50.830;12.082;2023-04-01T00:35:41;97687.13;;;13.36;49.64
11172;BME280;5642;50.830;12.082;2023-04-01T00:38:09;97634.09;;;13.04;49.57
11172;BME280;5642;50.830;12.082;2023-04-01T00:40:41;97672.03;;;13.38;49.68
11172;BME280;5642;50.830;12.082;2023-04-01T00:43:19;97683.22;;;13.41;49.52
11172;BME280;5642;50.830;12.082;2023-04-01T00:45:48;97666.88;;;13.36;49.65
11172;BME280;5642;50.830;12.082;2023-04-01T00:48:23;97676.78;;;13.45;49.53
11172;BME280;5642;50.830;12.082;2023-04-01T00:53:42;97681.94;;;13.47;49.71
11172;BME280;5642;50.830;12.082;2023-04-01T00:56:16;97642.94;;;13.28;49.55
11172;BME280;5642;50.830;12.082;2023-04-01T00:58:54;97663.31;;;13.37;49.74
11172;BME280;5642;50.830;12.082;2023-04-01T01:01:39;97669.41;;;13.38;49.77
11172;BME280;5642;50.830;12.082;2023-04-01T01:04:06;97668.56;;;13.37;49.70
11172;BME280;5642;50.830;12.082;2023-04-01T01:15:44;97663.00;;;13.29;49.70
11172;BME280;5642;50.830;12.082;2023-04-01T01:18:44;97681.09;;;13.33;49.80
11172;BME280;5642;50.830;12.082;2023-04-01T01:27:16;97672.41;;;13.20;49.89
11172;BME280;5642;50.830;12.082;2023-04-01T01:36:09;97667.84;;;13.10;49.78
11172;BME280;5642;50.830;12.082;2023-04-01T01:38:38;97667.66;;;13.13;49.73
11172;BME280;5642;50.830;12.082;2023-04-01T01:41:07;97635.81;;;12.92;50.04
11172;BME280;5642;50.830;12.082;2023-04-01T01:43:41;97613.09;;;12.78;49.99
11172;BME280;5642;50.830;12.082;2023-04-01T01:46:11;97669.84;;;13.06;49.92
11172;BME280;5642;50.830;12.082;2023-04-01T01:48:46;97668.91;;;13.07;49.96
11172;BME280;5642;50.830;12.082;2023-04-01T01:51:16;97661.56;;;13.00;50.26
11172;BME280;5642;50.830;12.082;2023-04-01T01:53:43;97656.41;;;12.98;50.42
11172;BME280;5642;50.830;12.082;2023-04-01T01:56:12;97657.25;;;12.99;49.94
11172;BME280;5642;50.830;12.082;2023-04-01T01:58:43;97669.84;;;13.06;49.88
11172;BME280;5642;50.830;12.082;2023-04-01T02:01:15;97657.75;;;13.04;50.30
11172;BME280;5642;50.830;12.082;2023-04-01T02:03:46;97661.75;;;13.09;49.93
11172;BME280;5642;50.830;12.082;2023-04-01T02:06:17;97668.50;;;13.13;49.73
11172;BME280;5642;50.830;12.082;2023-04-01T02:09:04;97672.50;;;13.19;49.95
11172;BME280;5642;50.830;12.082;2023-04-01T02:11:51;97669.88;;;13.19;49.89
11172;BME280;5642;50.830;12.082;2023-04-01T02:17:16;97616.34;;;12.94;49.89
11172;BME280;5642;50.830;12.082;2023-04-01T02:20:03;97671.22;;;13.24;49.79
11172;BME280;5642;50.830;12.082;2023-04-01T02:22:35;97675.53;;;13.25;49.79
11172;BME280;5642;50.830;12.082;2023-04-01T02:25:10;97637.47;;;13.06;49.76
11172;BME280;5642;50.830;12.082;2023-04-01T02:27:43;97673.41;;;13.30;49.81
11172;BME280;5642;50.830;12.082;2023-04-01T02:30:14;97669.00;;;13.31;49.56
11172;BME280;5642;50.830;12.082;2023-04-01T02:32:45;97657.34;;;13.22;49.65
11172;BME280;5642;50.830;12.082;2023-04-01T02:35:14;97675.84;;;13.33;49.73
11172;BME280;5642;50.830;12.082;2023-04-01T02:37:41;97636.41;;;13.08;49.68
11172;BME280;5642;50.830;12.082;2023-04-01T02:40:13;97656.63;;;13.20;49.88
11172;BME280;5642;50.830;12.082;2023-04-01T02:42:41;97651.47;;;13.19;49.90
11172;BME280;5642;50.830;12.082;2023-04-01T02:45:09;97683.31;;;13.40;49.68
11172;BME280;5642;50.830;12.082;2023-04-01T02:47:35;97657.25;;;13.24;49.70
11172;BME280;5642;50.830;12.082;2023-04-01T02:50:03;97671.44;;;13.34;49.65
11172;BME280;5642;50.830;12.082;2023-04-01T02:52:29;97643.59;;;13.19;49.82
11172;BME280;5642;50.830;12.082;2023-04-01T02:54:57;97684.56;;;13.47;49.67
11172;BME280;5642;50.830;12.082;2023-04-01T02:57:25;97688.03;;;13.47;49.81
11172;BME280;5642;50.830;12.082;2023-04-01T02:59:52;97681.19;;;13.45;49.70
11172;BME280;5642;50.830;12.082;2023-04-01T03:02:24;97674.13;;;13.45;49.82
11172;BME280;5642;50.830;12.082;2023-04-01T03:04:52;97690.41;;;13.50;49.63
11172;BME280;5642;50.830;12.082;2023-04-01T03:07:20;97692.94;;;13.52;49.57
11172;BME280;5642;50.830;12.082;2023-04-01T03:09:47;97663.44;;;13.36;49.65
11172;BME280;5642;50.830;12.082;2023-04-01T03:12:14;97657.53;;;13.32;49.85
11172;BME280;5642;50.830;12.082;2023-04-01T03:14:42;97682.53;;;13.50;49.81
11172;BME280;5642;50.830;12.082;2023-04-01T03:17:10;97682.88;;;13.46;49.64
11172;BME280;5642;50.830;12.082;2023-04-01T03:19:37;97664.38;;;13.35;49.83
11172;BME280;5642;50.830;12.082;2023-04-01T03:22:09;97650.94;;;13.26;49.78
11172;BME280;5642;50.830;12.082;2023-04-01T03:24:37;97688.34;;;13.55;49.67
11172;BME280;5642;50.830;12.082;2023-04-01T03:27:04;97691.81;;;13.56;49.49
11172;BME280;5642;50.830;12.082;2023-04-01T03:29:32;97649.75;;;13.30;49.65
11172;BME280;5642;50.830;12.082;2023-04-01T03:31:59;97630.22;;;13.22;49.64
11172;BME280;5642;50.830;12.082;2023-04-01T03:34:27;97677.41;;;13.49;49.68
11172;BME280;5642;50.830;12.082;2023-04-01T03:36:58;97678.25;;;13.49;49.64
11172;BME280;5642;50.830;12.082;2023-04-01T03:39:25;97676.56;;;13.48;49.55
11172;BME280;5642;50.830;12.082;2023-04-01T03:41:53;97644.72;;;13.27;49.70
11172;BME280;5642;50.830;12.082;2023-04-01T03:44:20;97671.19;;;13.37;49.81
11172;BME280;5642;50.830;12.082;2023-04-01T03:46:54;97680.69;;;13.40;49.67
11172;BME280;5642;50.830;12.082;2023-04-01T03:49:21;97686.53;;;13.43;49.47
11172;BME280;5642;50.830;12.082;2023-04-01T03:51:48;97679.44;;;13.32;49.87
11172;BME280;5642;50.830;12.082;2023-04-01T03:54:15;97649.66;;;13.07;49.63
11172;BME280;5642;50.830;12.082;2023-04-01T03:56:42;97668.28;;;13.16;49.69
11172;BME280;5642;50.830;12.082;2023-04-01T03:59:09;97704.03;;;13.31;49.76
11172;BME280;5642;50.830;12.082;2023-04-01T04:01:40;97669.00;;;13.06;49.70
11172;BME280;5642;50.830;12.082;2023-04-01T04:04:07;97700.88;;;13.26;49.94
11172;BME280;5642;50.830;12.082;2023-04-01T04:06:33;97701.72;;;13.27;49.70
11172;BME280;5642;50.830;12.082;2023-04-01T04:09:00;97690.91;;;13.19;49.58
11172;BME280;5642;50.830;12.082;2023-04-01T04:11:26;97688.28;;;13.19;49.65
11172;BME280;5642;50.830;12.082;2023-04-01T04:13:53;97688.03;;;13.22;49.84
11172;BME280;5642;50.830;12.082;2023-04-01T04:16:23;97693.94;;;13.25;49.84
11172;BME280;5642;50.830;12.082;2023-04-01T04:18:50;97684.06;;;13.16;49.64
11172;BME280;5642;50.830;12.082;2023-04-01T04:21:18;97712.75;;;13.32;49.85
11172;BME280;5642;50.830;12.082;2023-04-01T04:23:46;97699.00;;;13.28;49.77
11172;BME280;5642;50.830;12.082;2023-04-01T04:26:14;97685.53;;;13.20;49.92
11172;BME280;5642;50.830;12.082;2023-04-01T04:28:42;97690.91;;;13.19;49.69
11172;BME280;5642;50.830;12.082;2023-04-01T04:31:09;97689.41;;;13.15;49.67
11172;BME280;5642;50.830;12.082;2023-04-01T04:33:36;97711.72;;;13.35;49.67
11172;BME280;5642;50.830;12.082;2023-04-01T04:36:04;97703.72;;;13.23;49.79
11172;BME280;5642;50.830;12.082;2023-04-01T04:38:31;97690.06;;;13.18;49.73
11172;BME280;5642;50.830;12.082;2023-04-01T04:40:57;97717.91;;;13.33;49.74
11172;BME280;5642;50.830;12.082;2023-04-01T04:43:24;97676.91;;;13.06;49.73
11172;BME280;5642;50.830;12.082;2023-04-01T04:45:52;97699.53;;;13.21;49.80
11172;BME280;5642;50.830;12.082;2023-04-01T04:48:20;97704.66;;;13.22;49.62
11172;BME280;5642;50.830;12.082;2023-04-01T04:50:48;97710.47;;;13.27;49.99
11172;BME280;5642;50.830;12.082;2023-04-01T04:53:17;97721.16;;;13.37;49.66
11172;BME280;5642;50.830;12.082;2023-04-01T04:55:47;97723.59;;;13.40;49.80
11172;BME280;5642;50.830;12.082;2023-04-01T04:58:18;97731.38;;;13.42;49.75
11172;BME280;5642;50.830;12.082;2023-04-01T05:00:49;97699.41;;;13.22;49.57
11172;BME280;5642;50.830;12.082;2023-04-01T05:03:18;97725.06;;;13.44;49.80
11172;BME280;5642;50.830;12.082;2023-04-01T05:05:51;97727.69;;;13.44;49.75
11172;BME280;5642;50.830;12.082;2023-04-01T05:08:24;97689.88;;;13.21;49.83
11172;BME280;5642;50.830;12.082;2023-04-01T05:10:51;97724.22;;;13.44;49.77
11172;BME280;5642;50.830;12.082;2023-04-01T05:13:24;97720.88;;;13.42;49.89
11172;BME280;5642;50.830;12.082;2023-04-01T05:15:51;97717.28;;;13.43;49.68
11172;BME280;5642;50.830;12.082;2023-04-01T05:18:19;97724.63;;;13.50;49.66
11172;BME280;5642;50.830;12.082;2023-04-01T05:20:50;97745.88;;;13.60;49.62
11172;BME280;5642;50.830;12.082;2023-04-01T05:23:19;97737.66;;;13.64;49.57
11172;BME280;5642;50.830;12.082;2023-04-01T05:27:40;97737.44;;;13.67;49.78
11172;BME280;5642;50.830;12.082;2023-04-01T05:30:08;97746.38;;;13.78;49.70
11172;BME280;5642;50.830;12.082;2023-04-01T05:32:35;97742.38;;;13.85;49.74
11172;BME280;5642;50.830;12.082;2023-04-01T05:35:06;97744.31;;;13.94;49.48
11172;BME280;5642;50.830;12.082;2023-04-01T05:37:37;97740.28;;;14.01;49.55
11172;BME280;5642;50.830;12.082;2023-04-01T05:40:05;97743.97;;;14.11;49.47
11172;BME280;5642;50.830;12.082;2023-04-01T05:42:35;97755.72;;;14.18;49.48
11172;BME280;5642;50.830;12.082;2023-04-01T05:45:04;97739.69;;;14.21;49.51
11172;BME280;5642;50.830;12.082;2023-04-01T05:47:32;97744.53;;;14.27;49.39
11172;BME280;5642;50.830;12.082;2023-04-01T05:49:59;97737.59;;;14.26;49.45
11172;BME280;5642;50.830;12.082;2023-04-01T05:52:29;97733.88;;;14.29;49.26
11172;BME280;5642;50.830;12.082;2023-04-01T05:54:59;97692.59;;;14.05;49.20
11172;BME280;5642;50.830;12.082;2023-04-01T05:57:28;97737.63;;;14.37;49.44
11172;BME280;5642;50.830;12.082;2023-04-01T05:59:57;97742.47;;;14.43;49.31
11172;BME280;5642;50.830;12.082;2023-04-01T06:02:24;97723.44;;;14.40;49.27
11172;BME280;5642;50.830;12.082;2023-04-01T06:05:03;97748.53;;;14.57;49.15
11172;BME280;5642;50.830;12.082;2023-04-01T06:07:40;97744.91;;;14.46;49.36
11172;BME280;5642;50.830;12.082;2023-04-01T06:10:18;97761.97;;;14.65;49.22
11172;BME280;5642;50.830;12.082;2023-04-01T06:13:04;97751.22;;;14.68;49.21
11172;BME280;5642;50.830;12.082;2023-04-01T06:15:53;97761.94;;;14.77;49.17
11172;BME280;5642;50.830;12.082;2023-04-01T06:33:35;97757.22;;;15.62;48.56
11172;BME280;5642;50.830;12.082;2023-04-01T06:36:34;97758.91;;;15.63;48.75
11172;BME280;5642;50.830;12.082;2023-04-01T06:39:19;97762.59;;;15.60;48.74
11172;BME280;5642;50.830;12.082;2023-04-01T06:56:13;97763.53;;;15.71;48.84
11172;BME280;5642;50.830;12.082;2023-04-01T06:58:51;97753.72;;;15.61;48.85
11172;BME280;5642;50.830;12.082;2023-04-01T07:01:27;97766.19;;;15.71;48.83
11172;BME280;5642;50.830;12.082;2023-04-01T07:04:34;97742.91;;;15.64;48.95
11172;BME280;5642;50.830;12.082;2023-04-01T07:07:09;97735.72;;;15.66;48.84
11172;BME280;5642;50.830;12.082;2023-04-01T07:09:41;97760.31;;;15.89;48.72
11172;BME280;5642;50.830;12.082;2023-04-01T07:15:04;97763.28;;;16.07;48.56
11172;BME280;5642;50.830;12.082;2023-04-01T07:17:39;97761.97;;;16.13;48.70
11172;BME280;5642;50.830;12.082;2023-04-01T07:20:25;97752.97;;;16.04;48.34
11172;BME280;5642;50.830;12.082;2023-04-01T07:23:10;97735.00;;;15.98;48.46
11172;BME280;5642;50.830;12.082;2023-04-01T07:25:47;97749.47;;;16.15;48.84
11172;BME280;5642;50.830;12.082;2023-04-01T07:28:16;97762.28;;;16.30;48.56
11172;BME280;5642;50.830;12.082;2023-04-01T07:33:33;97756.63;;;16.35;48.59
11172;BME280;5642;50.830;12.082;2023-04-01T07:36:14;97766.34;;;16.45;48.61
11172;BME280;5642;50.830;12.082;2023-04-01T07:38:58;97760.78;;;16.49;48.43
11172;BME280;5642;50.830;12.082;2023-04-01T07:41:51;97773.97;;;16.60;48.69
11172;BME280;5642;50.830;12.082;2023-04-01T07:44:32;97773.25;;;16.69;48.70
11172;BME280;5642;50.830;12.082;2023-04-01T07:47:40;97774.16;;;16.79;48.57
11172;BME280;5642;50.830;12.082;2023-04-01T07:50:27;97779.88;;;16.95;48.40
11172;BME280;5642;50.830;12.082;2023-04-01T08:02:20;97775.88;;;17.93;47.60
11172;BME280;5642;50.830;12.082;2023-04-01T08:04:58;97783.03;;;18.12;47.47
11172;BME280;5642;50.830;12.082;2023-04-01T08:11:15;97792.50;;;18.45;47.05
11172;BME280;5642;50.830;12.082;2023-04-01T08:13:41;97786.19;;;18.36;46.94
11172;BME280;5642;50.830;12.082;2023-04-01T08:22:07;97784.28;;;18.08;47.31
11172;BME280;5642;50.830;12.082;2023-04-01T08:24:42;97790.59;;;18.17;47.23
11172;BME280;5642;50.830;12.082;2023-04-01T08:27:24;97785.72;;;18.22;47.07
11172;BME280;5642;50.830;12.082;2023-04-01T08:32:34;97769.66;;;18.14;46.93
11172;BME280;5642;50.830;12.082;2023-04-01T08:35:09;97732.59;;;17.83;47.04
11172;BME280;5642;50.830;12.082;2023-04-01T08:37:41;97760.53;;;17.87;46.97
11172;BME280;5642;50.830;12.082;2023-04-01T08:43:04;97785.38;;;17.96;46.97
11172;BME280;5642;50.830;12.082;2023-04-01T09:06:02;97804.03;;;17.94;46.97
11172;BME280;5642;50.830;12.082;2023-04-01T09:08:52;97798.03;;;17.92;47.00
11172;BME280;5642;50.830;12.082;2023-04-01T09:11:38;97787.84;;;17.88;46.95
11172;BME280;5642;50.830;12.082;2023-04-01T09:25:00;97818.56;;;18.00;46.72
11172;BME280;5642;50.830;12.082;2023-04-01T09:27:30;97807.97;;;18.00;46.69
11172;BME280;5642;50.830;12.082;2023-04-01T09:30:12;97813.31;;;18.19;46.56
11172;BME280;5642;50.830;12.082;2023-04-01T09:38:29;97804.28;;;18.71;46.16
11172;BME280;5642;50.830;12.082;2023-04-01T09:41:19;97820.22;;;18.81;46.06
11172;BME280;5642;50.830;12.082;2023-04-01T09:43:58;97818.78;;;18.77;46.01
11172;BME280;5642;50.830;12.082;2023-04-01T09:49:20;97816.13;;;18.58;46.09
11172;BME280;5642;50.830;12.082;2023-04-01T10:01:23;97814.34;;;18.28;46.25
11172;BME280;5642;50.830;12.082;2023-04-01T10:28:45;97810.09;;;19.62;45.52
11172;BME280;5642;50.830;12.082;2023-04-01T10:36:53;97827.84;;;20.17;45.22
11172;BME280;5642;50.830;12.082;2023-04-01T10:51:04;97813.41;;;20.20;45.19
11172;BME280;5642;50.830;12.082;2023-04-01T11:05:28;97804.25;;;19.68;45.17
11172;BME280;5642;50.830;12.082;2023-04-01T11:22:10;97827.31;;;18.81;45.45
11172;BME280;5642;50.830;12.082;2023-04-01T11:25:38;97832.41;;;18.53;45.47
11172;BME280;5642;50.830;12.082;2023-04-01T11:30:49;97835.28;;;18.40;45.72
11172;BME280;5642;50.830;12.082;2023-04-01T11:48:01;97825.97;;;18.46;45.57
11172;BME280;5642;50.830;12.082;2023-04-01T11:56:21;97845.59;;;18.24;45.86
11172;BME280;5642;50.830;12.082;2023-04-01T12:04:32;97837.06;;;17.90;45.88
11172;BME280;5642;50.830;12.082;2023-04-01T12:07:22;97852.91;;;17.81;45.96
11172;BME280;5642;50.830;12.082;2023-04-01T12:18:31;97851.22;;;17.59;46.07
11172;BME280;5642;50.830;12.082;2023-04-01T12:21:24;97853.84;;;17.38;46.00
11172;BME280;5642;50.830;12.082;2023-04-01T12:24:14;97854.19;;;17.13;46.25
11172;BME280;5642;50.830;12.082;2023-04-01T12:27:20;97857.06;;;16.89;46.32
11172;BME280;5642;50.830;12.082;2023-04-01T12:30:15;97862.53;;;16.76;46.38
11172;BME280;5642;50.830;12.082;2023-04-01T12:41:46;97849.22;;;16.99;46.16
11172;BME280;5642;50.830;12.082;2023-04-01T12:55:36;97846.75;;;17.59;45.82
11172;BME280;5642;50.830;12.082;2023-04-01T13:01:29;97852.25;;;17.47;46.07
11172;BME280;5642;50.830;12.082;2023-04-01T13:04:32;97837.00;;;17.39;45.95
11172;BME280;5642;50.830;12.082;2023-04-01T13:24:35;97851.31;;;17.99;45.97
11172;BME280;5642;50.830;12.082;2023-04-01T13:27:17;97847.56;;;18.02;45.93
11172;BME280;5642;50.830;12.082;2023-04-01T13:33:20;97854.75;;;18.11;45.93
11172;BME280;5642;50.830;12.082;2023-04-01T13:36:01;97856.72;;;18.18;45.92
11172;BME280;5642;50.830;12.082;2023-04-01T13:41:44;97858.78;;;18.15;45.63
11172;BME280;5642;50.830;12.082;2023-04-01T13:45:14;97867.00;;;18.12;45.73
11172;BME280;5642;50.830;12.082;2023-04-01T13:53:17;97866.88;;;18.13;45.75
11172;BME280;5642;50.830;12.082;2023-04-01T13:58:55;97873.84;;;18.14;45.62
11172;BME280;5642;50.830;12.082;2023-04-01T14:01:50;97861.97;;;18.09;45.69
11172;BME280;5642;50.830;12.082;2023-04-01T14:04:47;97862.69;;;18.11;45.59
11172;BME280;5642;50.830;12.082;2023-04-01T14:07:37;97863.53;;;18.11;45.70
11172;BME280;5642;50.830;12.082;2023-04-01T14:10:34;97874.16;;;18.21;45.58
11172;BME280;5642;50.830;12.082;2023-04-01T14:19:08;97880.72;;;18.26;45.53
11172;BME280;5642;50.830;12.082;2023-04-01T14:22:05;97878.66;;;17.99;45.76
11172;BME280;5642;50.830;12.082;2023-04-01T14:33:57;97876.72;;;17.60;46.47
11172;BME280;5642;50.830;12.082;2023-04-01T14:38:58;97872.28;;;17.60;46.19
11172;BME280;5642;50.830;12.082;2023-04-01T14:41:48;97889.03;;;17.82;46.11
11172;BME280;5642;50.830;12.082;2023-04-01T14:44:46;97889.22;;;17.90;45.95
11172;BME280;5642;50.830;12.082;2023-04-01T14:47:28;97891.03;;;17.89;45.84
11172;BME280;5642;50.830;12.082;2023-04-01T14:50:12;97885.72;;;17.89;45.89
11172;BME280;5642;50.830;12.082;2023-04-01T14:52:43;97890.94;;;17.80;45.92
11172;BME280;5642;50.830;12.082;2023-04-01T15:20:10;97908.44;;;17.18;46.35
11172;BME280;5642;50.830;12.082;2023-04-01T15:24:06;97905.09;;;17.05;46.32
11172;BME280;5642;50.830;12.082;2023-04-01T15:26:11;97914.13;;;17.03;46.43
11172;BME280;5642;50.830;12.082;2023-04-01T15:31:19;97909.59;;;16.94;46.04
11172;BME280;5642;50.830;12.082;2023-04-01T15:36:53;97928.13;;;16.71;46.41
11172;BME280;5642;50.830;12.082;2023-04-01T15:40:03;97936.19;;;16.59;46.50
11172;BME280;5642;50.830;12.082;2023-04-01T15:50:54;97944.44;;;16.10;47.29
11172;BME280;5642;50.830;12.082;2023-04-01T15:53:37;97939.53;;;16.05;47.39
11172;BME280;5642;50.830;12.082;2023-04-01T15:56:28;97942.50;;;16.00;47.36
11172;BME280;5642;50.830;12.082;2023-04-01T16:04:46;97943.13;;;16.04;47.30
11172;BME280;5642;50.830;12.082;2023-04-01T16:22:08;97955.28;;;16.18;47.33
11172;BME280;5642;50.830;12.082;2023-04-01T16:24:41;97970.75;;;16.22;47.40
11172;BME280;5642;50.830;12.082;2023-04-01T16:27:29;97968.97;;;16.23;47.40
11172;BME280;5642;50.830;12.082;2023-04-01T16:38:36;97978.09;;;16.19;47.64
11172;BME280;5642;50.830;12.082;2023-04-01T16:41:31;97985.16;;;16.18;47.67
11172;BME280;5642;50.830;12.082;2023-04-01T16:44:25;97987.94;;;16.17;47.41
11172;BME280;5642;50.830;12.082;2023-04-01T16:46:55;97990.09;;;16.12;47.68
11172;BME280;5642;50.830;12.082;2023-04-01T16:49:36;97983.22;;;15.98;47.63
11172;BME280;5642;50.830;12.082;2023-04-01T16:54:54;98000.84;;;15.97;47.71
11172;BME280;5642;50.830;12.082;2023-04-01T17:00:27;98013.31;;;15.84;47.96
11172;BME280;5642;50.830;12.082;2023-04-01T17:03:14;98022.75;;;15.76;48.02
11172;BME280;5642;50.830;12.082;2023-04-01T17:14:46;98031.59;;;15.51;48.18
11172;BME280;5642;50.830;12.082;2023-04-01T17:17:43;98042.38;;;15.48;48.30
11172;BME280;5642;50.830;12.082;2023-04-01T17:26:05;98046.72;;;15.36;48.60
11172;BME280;5642;50.830;12.082;2023-04-01T17:34:27;98060.59;;;15.27;48.71
11172;BME280;5642;50.830;12.082;2023-04-01T17:37:45;98057.69;;;15.19;48.71
11172;BME280;5642;50.830;12.082;2023-04-01T17:42:46;98060.31;;;15.19;48.70
11172;BME280;5642;50.830;12.082;2023-04-01T17:54:26;98085.19;;;15.15;48.80
11172;BME280;5642;50.830;12.082;2023-04-01T17:59:35;98090.31;;;15.05;49.12
11172;BME280;5642;50.830;12.082;2023-04-01T18:05:02;98092.53;;;14.99;49.00
11172;BME280;5642;50.830;12.082;2023-04-01T18:19:00;98112.59;;;14.63;49.70
11172;BME280;5642;50.830;12.082;2023-04-01T18:24:21;98120.69;;;14.47;49.41
11172;BME280;5642;50.830;12.082;2023-04-01T18:32:23;98137.38;;;14.34;49.91
11172;BME280;5642;50.830;12.082;2023-04-01T18:37:27;98150.00;;;14.29;49.82
11172;BME280;5642;50.830;12.082;2023-04-01T18:40:10;98140.81;;;14.22;49.94
11172;BME280;5642;50.830;12.082;2023-04-01T18:45:45;98162.09;;;14.19;49.93
11172;BME280;5642;50.830;12.082;2023-04-01T18:50:53;98158.81;;;14.15;50.04
11172;BME280;5642;50.830;12.082;2023-04-01T18:53:30;98162.94;;;14.19;50.06
11172;BME280;5642;50.830;12.082;2023-04-01T18:56:06;98141.94;;;14.05;50.15
11172;BME280;5642;50.830;12.082;2023-04-01T18:58:46;98166.09;;;14.24;50.05
11172;BME280;5642;50.830;12.082;2023-04-01T19:01:25;98165.78;;;14.29;50.07
11172;BME280;5642;50.830;12.082;2023-04-01T19:04:04;98185.50;;;14.36;50.07
11172;BME280;5642;50.830;12.082;2023-04-01T19:09:32;98187.25;;;14.49;50.04
11172;BME280;5642;50.830;12.082;2023-04-01T19:12:42;98192.34;;;14.53;49.92
11172;BME280;5642;50.830;12.082;2023-04-01T19:15:22;98187.81;;;14.55;49.79
11172;BME280;5642;50.830;12.082;2023-04-01T19:18:16;98195.72;;;14.55;49.79
11172;BME280;5642;50.830;12.082;2023-04-01T19:20:53;98168.50;;;14.41;49.81
11172;BME280;5642;50.830;12.082;2023-04-01T19:26:05;98201.53;;;14.60;49.87
11172;BME280;5642;50.830;12.082;2023-04-01T19:31:28;98204.91;;;14.62;49.89
11172;BME280;5642;50.830;12.082;2023-04-01T19:48:05;98221.31;;;14.53;50.23
11172;BME280;5642;50.830;12.082;2023-04-01T19:50:46;98231.09;;;14.50;50.15
11172;BME280;5642;50.830;12.082;2023-04-01T19:53:21;98223.97;;;14.53;50.18
11172;BME280;5642;50.830;12.082;2023-04-01T19:58:49;98221.72;;;14.46;50.19
11172;BME280;5642;50.830;12.082;2023-04-01T20:01:35;98230.91;;;14.54;50.25
11172;BME280;5642;50.830;12.082;2023-04-01T20:04:10;98244.00;;;14.55;50.33
11172;BME280;5642;50.830;12.082;2023-04-01T20:06:52;98243.88;;;14.57;50.25
11172;BME280;5642;50.830;12.082;2023-04-01T20:15:03;98241.97;;;14.46;50.19
11172;BME280;5642;50.830;12.082;2023-04-01T20:17:42;98238.47;;;14.45;50.10
11172;BME280;5642;50.830;12.082;2023-04-01T20:25:20;98268.78;;;14.65;50.01
11172;BME280;5642;50.830;12.082;2023-04-01T20:28:10;98264.00;;;14.58;50.07
11172;BME280;5642;50.830;12.082;2023-04-01T20:33:48;98275.00;;;14.64;50.06
11172;BME280;5642;50.830;12.082;2023-04-01T20:44:52;98289.34;;;14.60;50.37
11172;BME280;5642;50.830;12.082;2023-04-01T20:50:00;98301.84;;;14.57;50.18
11172;BME280;5642;50.830;12.082;2023-04-01T20:52:42;98288.44;;;14.47;50.41
11172;BME280;5642;50.830;12.082;2023-04-01T20:55:30;98299.63;;;14.50;50.38
11172;BME280;5642;50.830;12.082;2023-04-01T20:58:28;98299.63;;;14.50;50.39
11172;BME280;5642;50.830;12.082;2023-04-01T21:06:15;98310.38;;;14.47;50.49
11172;BME280;5642;50.830;12.082;2023-04-01T21:23:56;98324.38;;;14.48;50.50
11172;BME280;5642;50.830;12.082;2023-04-01T21:26:15;98332.47;;;14.45;50.23
11172;BME280;5642;50.830;12.082;2023-04-01T21:40:35;98355.91;;;14.21;50.89
11172;BME280;5642;50.830;12.082;2023-04-01T21:46:36;98356.03;;;14.20;51.02
11172;BME280;5642;50.830;12.082;2023-04-01T21:52:10;98371.00;;;14.19;50.97
11172;BME280;5642;50.830;12.082;2023-04-01T21:57:59;98381.63;;;14.18;51.01
11172;BME280;5642;50.830;12.082;2023-04-01T22:00:45;98384.53;;;14.13;51.12
11172;BME280;5642;50.830;12.082;2023-04-01T22:03:36;98382.25;;;14.07;51.27
11172;BME280;5642;50.830;12.082;2023-04-01T22:06:34;98374.19;;;13.96;51.17
11172;BME280;5642;50.830;12.082;2023-04-01T22:09:10;98386.72;;;13.92;51.24
11172;BME280;5642;50.830;12.082;2023-04-01T22:14:40;98391.69;;;13.83;51.41
11172;BME280;5642;50.830;12.082;2023-04-01T22:23:10;98402.50;;;13.78;51.45
11172;BME280;5642;50.830;12.082;2023-04-01T22:28:20;98407.09;;;13.75;51.66
11172;BME280;5642;50.830;12.082;2023-04-01T22:30:59;98405.22;;;13.77;51.30
11172;BME280;5642;50.830;12.082;2023-04-01T22:44:59;98425.97;;;13.67;51.51
11172;BME280;5642;50.830;12.082;2023-04-01T22:50:19;98434.63;;;13.69;51.21
11172;BME280;5642;50.830;12.082;2023-04-01T22:52:50;98406.75;;;13.51;51.39
11172;BME280;5642;50.830;12.082;2023-04-01T22:55:28;98403.56;;;13.46;51.38
11172;BME280;5642;50.830;12.082;2023-04-01T22:58:21;98428.97;;;13.61;51.45
11172;BME280;5642;50.830;12.082;2023-04-01T23:00:56;98427.91;;;13.49;51.61
11172;BME280;5642;50.830;12.082;2023-04-01T23:03:34;98451.22;;;13.55;51.40
11172;BME280;5642;50.830;12.082;2023-04-01T23:06:04;98434.56;;;13.41;51.50
11172;BME280;5642;50.830;12.082;2023-04-01T23:09:04;98453.97;;;13.38;51.55
11172;BME280;5642;50.830;12.082;2023-04-01T23:12:02;98457.75;;;13.18;51.81
11172;BME280;5642;50.830;12.082;2023-04-01T23:14:44;98444.88;;;12.98;51.88
11172;BME280;5642;50.830;12.082;2023-04-01T23:17:28;98468.69;;;12.95;52.02
11172;BME280;5642;50.830;12.082;2023-04-01T23:23:33;98486.13;;;12.65;52.57